Time;durP1;ratioP1;P1;durP2;ratioP2;P2;SDS_P1;SDS_P2;PMS_P1;PMS_P2;Temp;Humidity;BMP_temperature;BMP_pressure;BME280_temperature;BME280_humidity;BME280_pressure;Samples;Min_cycle;Max_cycle;Signal;HPM_P1;HPM_P2
2022/04/04 00:00:49;;;;;;;9.55;6.78;;;3.10;79.30;;;;;;5050791;28;20028;-73
2022/04/04 00:03:16;;;;;;;10.07;6.88;;;3.10;79.60;;;;;;5051391;28;20044;-73
2022/04/04 00:05:41;;;;;;;7.88;6.82;;;3.10;79.70;;;;;;5050821;28;20021;-73
2022/04/04 00:08:07;;;;;;;8.77;7.05;;;3.00;80.50;;;;;;5051239;28;20100;-73
2022/04/04 00:10:33;;;;;;;10.75;7.25;;;3.00;81.00;;;;;;5051322;28;20036;-72
2022/04/04 00:12:59;;;;;;;11.20;7.32;;;3.00;81.60;;;;;;5050945;28;20029;-73
2022/04/04 00:15:25;;;;;;;9.07;7.13;;;2.90;81.80;;;;;;5051003;28;20028;-73
2022/04/04 00:17:50;;;;;;;12.30;7.18;;;2.90;82.30;;;;;;5049252;28;20037;-73
2022/04/04 00:20:16;;;;;;;14.18;7.53;;;2.90;82.60;;;;;;5050834;28;20033;-72
2022/04/04 00:22:43;;;;;;;8.60;6.70;;;2.90;82.90;;;;;;5050673;28;20427;-73
2022/04/04 00:25:09;;;;;;;10.05;7.07;;;2.90;83.10;;;;;;5051021;28;20032;-74
2022/04/04 00:27:35;;;;;;;8.75;7.05;;;2.90;84.10;;;;;;5050661;28;20021;-80
2022/04/04 00:30:02;;;;;;;11.13;7.43;;;2.90;83.90;;;;;;5050154;28;20393;-73
2022/04/04 00:32:28;;;;;;;8.82;7.68;;;2.80;83.90;;;;;;5050910;28;20033;-74
2022/04/04 00:34:55;;;;;;;9.23;7.80;;;2.90;84.00;;;;;;5050580;28;20802;-73
2022/04/04 00:37:21;;;;;;;11.90;7.90;;;2.80;84.30;;;;;;5050018;28;20061;-73
2022/04/04 00:40:06;;;;;;;9.52;6.93;;;2.90;84.50;;;;;;5050129;28;20071;-72
2022/04/04 00:42:32;;;;;;;8.48;7.07;;;2.80;84.80;;;;;;5050458;28;20035;-73
2022/04/04 00:44:58;;;;;;;8.45;7.00;;;2.80;85.30;;;;;;5050309;28;20036;-73
2022/04/04 00:47:23;;;;;;;9.05;7.75;;;2.80;85.60;;;;;;5051160;28;20029;-73
2022/04/04 00:49:49;;;;;;;12.98;8.32;;;2.70;86.10;;;;;;5050225;28;20566;-73
2022/04/04 00:52:16;;;;;;;10.73;8.35;;;2.70;86.40;;;;;;5050931;28;20049;-73
2022/04/04 00:54:41;;;;;;;9.48;8.00;;;2.70;86.80;;;;;;5049685;28;20104;-71
2022/04/04 00:57:08;;;;;;;10.30;7.85;;;2.70;87.40;;;;;;5050727;28;20133;-73
2022/04/04 00:59:35;;;;;;;7.78;6.97;;;2.60;87.70;;;;;;5050217;28;20393;-74
2022/04/04 01:02:01;;;;;;;9.10;8.20;;;2.60;88.00;;;;;;5050609;28;20531;-74
2022/04/04 01:04:27;;;;;;;8.80;7.70;;;2.60;88.30;;;;;;5050528;28;20029;-73
2022/04/04 01:06:52;;;;;;;10.48;8.00;;;2.60;88.70;;;;;;5050170;28;20025;-73
2022/04/04 01:09:18;;;;;;;10.05;8.00;;;2.60;88.90;;;;;;5050591;28;20045;-73
2022/04/04 01:12:10;;;;;;;10.85;8.27;;;2.60;89.40;;;;;;5049785;28;20438;-72
2022/04/04 01:14:47;;;;;;;11.73;8.70;;;2.60;90.00;;;;;;5050078;28;20021;-75
2022/04/04 01:17:18;;;;;;;9.55;8.05;;;2.60;90.20;;;;;;5050591;28;20116;-73
2022/04/04 01:19:44;;;;;;;12.00;9.55;;;2.60;90.40;;;;;;5049859;28;20029;-73
2022/04/04 01:22:12;;;;;;;11.02;8.43;;;2.50;90.80;;;;;;5050585;28;20116;-72
2022/04/04 01:24:38;;;;;;;9.80;8.65;;;2.50;91.00;;;;;;5049987;28;20021;-74
2022/04/04 01:27:05;;;;;;;10.38;9.10;;;2.50;91.30;;;;;;5050396;28;20047;-74
2022/04/04 01:29:31;;;;;;;10.55;8.80;;;2.50;91.60;;;;;;5050153;28;20032;-73
2022/04/04 01:31:56;;;;;;;11.82;8.60;;;2.50;91.60;;;;;;5049809;28;20037;-73
2022/04/04 01:34:22;;;;;;;10.02;8.85;;;2.50;91.90;;;;;;5050450;28;20452;-73
2022/04/04 01:36:49;;;;;;;10.68;9.43;;;2.50;92.20;;;;;;5049821;28;20368;-73
2022/04/04 01:39:14;;;;;;;13.75;9.15;;;2.50;92.30;;;;;;5050287;28;20458;-74
2022/04/04 01:41:40;;;;;;;14.13;10.00;;;2.50;92.50;;;;;;5049803;28;20108;-73
2022/04/04 01:44:06;;;;;;;11.63;9.43;;;2.50;92.70;;;;;;5050284;28;20025;-74
2022/04/04 01:46:32;;;;;;;12.25;9.32;;;2.50;92.80;;;;;;5050313;28;20057;-73
2022/04/04 01:49:00;;;;;;;12.25;9.00;;;2.50;92.90;;;;;;5051329;28;20377;-73
2022/04/04 01:51:27;;;;;;;12.18;9.38;;;2.50;93.00;;;;;;5053822;28;20379;-73
2022/04/04 01:53:53;;;;;;;12.05;9.82;;;2.50;93.10;;;;;;5053294;28;20025;-73
2022/04/04 01:56:19;;;;;;;15.40;10.88;;;2.50;93.30;;;;;;5053818;28;20063;-73
2022/04/04 01:58:45;;;;;;;16.48;11.05;;;2.40;93.50;;;;;;5053092;28;20029;-76
2022/04/04 02:01:14;;;;;;;15.52;10.45;;;2.40;93.80;;;;;;5053713;28;20039;-73
2022/04/04 02:03:42;;;;;;;13.90;10.60;;;2.40;94.10;;;;;;5053134;28;20169;-73
2022/04/04 02:06:07;;;;;;;12.95;10.98;;;2.40;94.30;;;;;;5053691;28;20029;-74
2022/04/04 02:08:34;;;;;;;14.75;11.10;;;2.30;94.50;;;;;;5053465;28;20036;-73
2022/04/04 02:11:00;;;;;;;14.02;10.93;;;2.30;94.60;;;;;;5052848;28;20029;-73
2022/04/04 02:13:27;;;;;;;13.88;11.45;;;2.30;95.00;;;;;;5052165;28;20355;-76
2022/04/04 02:15:53;;;;;;;15.07;11.63;;;2.30;95.10;;;;;;5052846;28;20021;-73
2022/04/04 02:18:19;;;;;;;15.65;11.50;;;2.30;95.10;;;;;;5053381;28;20457;-73
2022/04/04 02:20:46;;;;;;;15.07;11.32;;;2.30;95.40;;;;;;5052784;28;20025;-73
2022/04/04 02:23:12;;;;;;;14.75;10.18;;;2.30;95.60;;;;;;5053434;28;20052;-73
2022/04/04 02:25:38;;;;;;;14.25;10.70;;;2.30;95.70;;;;;;5052652;28;20017;-73
2022/04/04 02:28:04;;;;;;;15.23;10.63;;;2.30;95.80;;;;;;5052747;28;20025;-72
2022/04/04 02:30:29;;;;;;;14.20;11.38;;;2.30;96.00;;;;;;5052926;28;20044;-72
2022/04/04 02:32:55;;;;;;;15.85;10.95;;;2.20;96.20;;;;;;5052226;28;20032;-72
2022/04/04 02:35:21;;;;;;;13.05;10.88;;;2.20;96.40;;;;;;5052930;28;20100;-73
2022/04/04 02:37:47;;;;;;;15.40;11.20;;;2.20;96.50;;;;;;5051086;28;20130;-73
2022/04/04 02:40:13;;;;;;;14.30;10.52;;;2.20;96.60;;;;;;5052859;28;20021;-74
2022/04/04 02:42:39;;;;;;;14.15;11.25;;;2.20;96.70;;;;;;5052095;28;20355;-74
2022/04/04 02:45:05;;;;;;;16.85;11.30;;;2.20;96.70;;;;;;5052766;28;20458;-73
2022/04/04 02:47:31;;;;;;;14.57;11.38;;;2.20;96.80;;;;;;5052907;28;20102;-73
2022/04/04 02:49:56;;;;;;;14.18;11.07;;;2.20;97.00;;;;;;5051672;28;20037;-73
2022/04/04 02:52:22;;;;;;;11.82;10.57;;;2.20;97.00;;;;;;5052023;28;20033;-73
2022/04/04 02:54:47;;;;;;;14.60;10.63;;;2.20;97.20;;;;;;5051681;28;20393;-73
2022/04/04 02:57:16;;;;;;;14.27;11.63;;;2.10;97.20;;;;;;5052379;28;20028;-73
2022/04/04 02:59:42;;;;;;;13.20;11.15;;;2.10;97.30;;;;;;5051268;28;20055;-73
2022/04/04 03:02:07;;;;;;;15.15;10.02;;;2.10;97.40;;;;;;5052445;28;20025;-73
2022/04/04 03:04:33;;;;;;;15.15;11.10;;;2.10;97.50;;;;;;5052376;28;20037;-74
2022/04/04 03:07:00;;;;;;;15.65;10.63;;;2.10;97.60;;;;;;5052345;28;20130;-72
2022/04/04 03:09:26;;;;;;;15.68;11.18;;;2.10;97.70;;;;;;5053007;28;20032;-72
2022/04/04 03:11:51;;;;;;;13.63;10.35;;;2.00;97.70;;;;;;5051957;28;20094;-73
2022/04/04 03:14:17;;;;;;;15.88;11.05;;;2.10;97.90;;;;;;5049382;28;20024;-74
2022/04/04 03:16:43;;;;;;;12.52;10.90;;;2.00;97.90;;;;;;5051697;28;20028;-74
2022/04/04 03:19:08;;;;;;;15.18;10.70;;;2.00;98.00;;;;;;5052347;28;20078;-74
2022/04/04 03:21:34;;;;;;;13.10;10.07;;;2.00;98.00;;;;;;5049586;28;20025;-74
2022/04/04 03:23:59;;;;;;;13.18;10.93;;;2.00;97.90;;;;;;5052021;28;20025;-73
2022/04/04 03:26:25;;;;;;;15.52;12.18;;;2.00;98.10;;;;;;5051058;28;20028;-73
2022/04/04 03:28:51;;;;;;;13.50;10.90;;;2.00;98.00;;;;;;5052224;28;20037;-73
2022/04/04 03:31:16;;;;;;;15.55;10.77;;;2.00;98.00;;;;;;5052555;28;20070;-73
2022/04/04 03:33:44;;;;;;;15.05;10.80;;;1.90;98.00;;;;;;5050751;28;20029;-72
2022/04/04 03:36:10;;;;;;;12.32;10.52;;;1.90;97.90;;;;;;5052565;28;20037;-73
2022/04/04 03:38:36;;;;;;;12.07;10.15;;;2.00;98.10;;;;;;5052311;28;20060;-73
2022/04/04 03:41:20;;;;;;;15.05;10.63;;;1.90;98.00;;;;;;5050759;28;20450;-72
2022/04/04 03:43:46;;;;;;;11.77;10.10;;;1.90;98.10;;;;;;5051671;28;20170;-73
2022/04/04 03:46:12;;;;;;;13.65;10.55;;;1.90;98.10;;;;;;5052478;28;20028;-73
2022/04/04 03:48:37;;;;;;;12.50;10.02;;;1.90;98.10;;;;;;5052403;28;20029;-72
2022/04/04 03:51:04;;;;;;;13.23;10.32;;;1.90;98.00;;;;;;5049135;28;20033;-75
2022/04/04 03:53:29;;;;;;;13.40;10.55;;;1.90;98.00;;;;;;5051592;28;20456;-74
2022/04/04 03:55:55;;;;;;;14.45;10.02;;;1.90;97.90;;;;;;5051137;28;20048;-74
2022/04/04 03:58:21;;;;;;;11.95;9.93;;;1.90;97.80;;;;;;5052154;28;20032;-73
2022/04/04 04:00:46;;;;;;;12.55;10.27;;;1.90;97.70;;;;;;5051313;28;20086;-73
2022/04/04 04:03:12;;;;;;;13.77;10.43;;;1.90;97.60;;;;;;5052168;28;20025;-73
2022/04/04 04:05:38;;;;;;;14.20;10.50;;;1.90;97.60;;;;;;5051882;28;20025;-73
2022/04/04 04:08:04;;;;;;;14.35;10.35;;;1.90;97.50;;;;;;5051330;28;20032;-74
2022/04/04 04:10:30;;;;;;;12.23;9.45;;;1.90;97.50;;;;;;5051852;28;20034;-73
2022/04/04 04:12:56;;;;;;;11.57;10.23;;;1.90;97.40;;;;;;5051226;28;20381;-73
2022/04/04 04:15:24;;;;;;;12.90;9.55;;;1.90;97.40;;;;;;5052105;28;20027;-73
2022/04/04 04:17:52;;;;;;;10.88;9.00;;;1.90;97.30;;;;;;5051218;28;20063;-74
2022/04/04 04:20:26;;;;;;;16.20;10.25;;;1.90;97.20;;;;;;5051299;28;20036;-74
2022/04/04 04:22:54;;;;;;;10.68;9.18;;;1.90;97.10;;;;;;5051202;28;20074;-75
2022/04/04 04:25:22;;;;;;;16.20;9.45;;;1.90;96.80;;;;;;5050913;28;20382;-73
2022/04/04 04:27:49;;;;;;;12.70;9.30;;;1.90;96.80;;;;;;5051187;28;20052;-74
2022/04/04 04:30:15;;;;;;;12.05;10.13;;;1.90;96.80;;;;;;5051605;28;20037;-74
2022/04/04 04:32:49;;;;;;;13.30;9.95;;;1.90;96.60;;;;;;5050957;28;20033;-75
2022/04/04 04:35:16;;;;;;;13.90;10.10;;;1.90;96.60;;;;;;5051687;28;20355;-74
2022/04/04 04:37:43;;;;;;;14.65;10.10;;;1.90;96.50;;;;;;5050851;28;20025;-74
2022/04/04 04:40:09;;;;;;;13.80;9.88;;;1.90;96.60;;;;;;5051731;28;20037;-72
2022/04/04 04:42:36;;;;;;;14.57;10.07;;;1.90;96.40;;;;;;5051713;28;20117;-73
2022/04/04 04:45:03;;;;;;;13.00;9.90;;;1.90;96.40;;;;;;5050504;28;20367;-73
2022/04/04 04:47:29;;;;;;;13.57;9.73;;;1.90;96.40;;;;;;5051636;28;20496;-73
2022/04/04 04:49:55;;;;;;;12.25;9.70;;;1.90;96.30;;;;;;5050362;28;20041;-73
2022/04/04 04:52:21;;;;;;;14.60;9.98;;;1.90;96.20;;;;;;5050836;28;20033;-74
2022/04/04 04:54:47;;;;;;;12.35;9.48;;;1.90;96.10;;;;;;5049921;28;20478;-73
2022/04/04 04:57:12;;;;;;;17.88;10.02;;;1.90;96.00;;;;;;5051089;28;20033;-73
2022/04/04 04:59:38;;;;;;;14.68;9.65;;;1.90;96.00;;;;;;5051192;28;20040;-73
2022/04/04 05:02:04;;;;;;;13.40;9.27;;;1.90;95.80;;;;;;5050990;28;20499;-73
2022/04/04 05:04:30;;;;;;;12.80;9.10;;;1.90;95.70;;;;;;5051112;28;20093;-73
2022/04/04 05:06:55;;;;;;;12.32;9.80;;;1.90;95.70;;;;;;5050763;28;20107;-73
2022/04/04 05:09:21;;;;;;;15.23;10.57;;;2.00;95.50;;;;;;5051352;28;20072;-74
2022/04/04 05:11:47;;;;;;;13.98;10.45;;;2.00;95.40;;;;;;5050944;28;20067;-74
2022/04/04 05:14:16;;;;;;;15.15;10.38;;;2.00;95.30;;;;;;5051084;28;20025;-74
2022/04/04 05:16:43;;;;;;;18.88;10.20;;;2.00;95.30;;;;;;5050804;28;20025;-79
2022/04/04 05:19:10;;;;;;;13.32;9.25;;;2.00;95.10;;;;;;5051350;28;20032;-74
2022/04/04 05:21:35;;;;;;;13.63;9.90;;;2.10;95.00;;;;;;5051290;28;20025;-74
2022/04/04 05:24:02;;;;;;;11.32;9.52;;;2.10;94.90;;;;;;5053715;28;20353;-74
2022/04/04 05:26:29;;;;;;;15.00;10.00;;;2.10;94.70;;;;;;5055054;28;20029;-74
2022/04/04 05:28:55;;;;;;;13.27;10.23;;;2.10;94.50;;;;;;5054204;28;20065;-74
2022/04/04 05:31:21;;;;;;;10.93;9.40;;;2.20;94.30;;;;;;5054878;28;20056;-73
2022/04/04 05:33:46;;;;;;;14.18;9.68;;;2.20;94.10;;;;;;5054074;28;20083;-74
2022/04/04 05:36:12;;;;;;;16.55;9.30;;;2.20;93.90;;;;;;5055074;28;20068;-73
2022/04/04 05:38:38;;;;;;;16.52;10.43;;;2.20;93.60;;;;;;5054864;28;20021;-74
2022/04/04 05:41:03;;;;;;;14.52;10.52;;;2.30;93.40;;;;;;5054034;28;20021;-74
2022/04/04 05:43:29;;;;;;;13.35;9.18;;;2.30;93.20;;;;;;5054553;28;20033;-74
2022/04/04 05:45:54;;;;;;;11.55;9.00;;;2.30;92.90;;;;;;5054261;28;20029;-74
2022/04/04 05:48:20;;;;;;;11.38;9.15;;;2.40;92.40;;;;;;5054626;28;20112;-74
2022/04/04 05:50:46;;;;;;;11.77;9.70;;;2.40;92.00;;;;;;5053862;28;20489;-74
2022/04/04 05:53:11;;;;;;;11.43;10.00;;;2.40;91.70;;;;;;5054976;28;20098;-74
2022/04/04 05:55:37;;;;;;;19.05;8.98;;;2.50;91.60;;;;;;5054360;28;20194;-73
2022/04/04 05:58:03;;;;;;;14.73;9.52;;;2.60;91.40;;;;;;5053859;28;20021;-73
2022/04/04 06:00:28;;;;;;;13.07;9.60;;;2.60;90.80;;;;;;5054201;28;20025;-74
2022/04/04 06:02:55;;;;;;;12.07;8.80;;;2.60;90.70;;;;;;5053519;28;20034;-72
2022/04/04 06:05:21;;;;;;;11.52;9.40;;;2.70;90.30;;;;;;5054374;28;20151;-74
2022/04/04 06:07:47;;;;;;;11.05;8.60;;;2.70;90.10;;;;;;5053666;28;20454;-74
2022/04/04 06:10:13;;;;;;;15.50;9.43;;;2.70;89.10;;;;;;5054228;28;20058;-74
2022/04/04 06:12:40;;;;;;;12.07;8.75;;;2.80;89.00;;;;;;5053981;28;20375;-75
2022/04/04 06:15:06;;;;;;;12.20;9.50;;;2.80;87.40;;;;;;5053341;28;20037;-73
2022/04/04 06:17:32;;;;;;;14.85;9.35;;;2.90;86.70;;;;;;5054250;28;20057;-74
2022/04/04 06:19:58;;;;;;;11.02;8.43;;;3.00;86.80;;;;;;5053386;28;20036;-73
2022/04/04 06:22:24;;;;;;;11.98;8.80;;;3.10;85.50;;;;;;5054323;28;20382;-73
2022/04/04 06:24:50;;;;;;;10.77;8.57;;;3.20;84.50;;;;;;5053388;28;20025;-75
2022/04/04 06:27:16;;;;;;;12.63;8.60;;;3.30;84.00;;;;;;5054081;28;20056;-74
2022/04/04 06:29:42;;;;;;;12.23;8.80;;;3.40;82.50;;;;;;5053248;28;20033;-73
2022/04/04 06:32:10;;;;;;;12.88;8.68;;;3.50;82.10;;;;;;5053551;28;20025;-73
2022/04/04 06:34:36;;;;;;;11.20;8.27;;;3.60;81.40;;;;;;5052711;28;20025;-73
2022/04/04 06:37:02;;;;;;;13.95;9.27;;;3.80;80.50;;;;;;5044591;28;20462;-75
2022/04/04 06:39:28;;;;;;;9.88;6.93;;;4.00;78.90;;;;;;5033654;28;20458;-73
2022/04/04 06:41:55;;;;;;;8.27;7.03;;;4.30;75.80;;;;;;5032990;28;20033;-72
2022/04/04 06:44:20;;;;;;;7.53;6.03;;;4.60;71.50;;;;;;5033905;28;20387;-73
2022/04/04 06:46:46;;;;;;;8.73;6.50;;;4.80;69.50;;;;;;5033063;28;20032;-73
2022/04/04 06:49:12;;;;;;;8.70;6.55;;;5.10;68.20;;;;;;5033687;28;20029;-73
2022/04/04 06:51:38;;;;;;;8.52;6.63;;;5.40;67.10;;;;;;5033328;28;20390;-73
2022/04/04 06:54:05;;;;;;;7.72;6.13;;;5.70;64.80;;;;;;5032980;28;20018;-73
2022/04/04 06:56:34;;;;;;;8.98;6.82;;;5.90;63.00;;;;;;5033031;28;20115;-74
2022/04/04 06:59:01;;;;;;;8.05;6.53;;;6.20;60.90;;;;;;5032952;28;20029;-73
2022/04/04 07:01:27;;;;;;;12.10;6.20;;;6.50;59.30;;;;;;5033572;28;20087;-73
2022/04/04 07:03:52;;;;;;;8.45;6.13;;;7.00;57.20;;;;;;5032765;28;20030;-73
2022/04/04 07:06:18;;;;;;;9.07;5.75;;;8.30;55.10;;;;;;5033336;28;20029;-74
2022/04/04 07:08:44;;;;;;;7.22;5.00;;;10.20;49.50;;;;;;5033398;28;20386;-73
2022/04/04 07:11:10;;;;;;;6.40;5.00;;;11.90;45.40;;;;;;5032509;28;20034;-74
2022/04/04 07:13:40;;;;;;;5.78;4.70;;;13.40;41.10;;;;;;5033410;28;20034;-73
2022/04/04 07:16:06;;;;;;;5.97;4.55;;;14.20;38.00;;;;;;5032664;28;20026;-73
2022/04/04 07:18:32;;;;;;;5.05;4.40;;;15.00;37.70;;;;;;5033136;28;20071;-73
2022/04/04 07:20:58;;;;;;;5.93;3.90;;;16.10;34.80;;;;;;5032339;28;20032;-73
2022/04/04 07:23:24;;;;;;;7.90;4.55;;;16.80;33.10;;;;;;5049667;28;20029;-72
2022/04/04 07:25:49;;;;;;;5.90;4.43;;;17.40;31.40;;;;;;5052493;28;20355;-74
2022/04/04 07:28:15;;;;;;;5.22;4.43;;;17.90;30.10;;;;;;5052865;28;20056;-73
2022/04/04 07:30:43;;;;;;;4.45;4.00;;;18.90;29.60;;;;;;5052641;28;20037;-73
2022/04/04 07:33:10;;;;;;;4.82;3.45;;;18.70;27.90;;;;;;5052119;28;20043;-73
2022/04/04 07:35:36;;;;;;;6.82;3.70;;;18.50;28.70;;;;;;5052744;28;20108;-73
2022/04/04 07:38:01;;;;;;;5.30;3.70;;;19.70;28.00;;;;;;5052076;28;20031;-73
2022/04/04 07:40:28;;;;;;;5.55;4.20;;;20.80;27.20;;;;;;5052457;28;20029;-73
2022/04/04 07:42:54;;;;;;;6.78;3.60;;;20.90;25.50;;;;;;5052061;28;20037;-73
2022/04/04 07:45:20;;;;;;;4.53;3.35;;;21.00;25.50;;;;;;5052466;28;20029;-73
2022/04/04 07:47:49;;;;;;;3.83;3.45;;;21.70;25.20;;;;;;5052572;28;20028;-73
2022/04/04 07:50:15;;;;;;;4.55;3.30;;;22.80;25.50;;;;;;5052497;28;20116;-73
2022/04/04 07:52:41;;;;;;;5.25;2.95;;;23.00;23.90;;;;;;5052515;28;20474;-72
2022/04/04 07:55:09;;;;;;;4.80;3.10;;;23.00;23.80;;;;;;5051646;28;20053;-72
2022/04/04 07:57:35;;;;;;;5.55;3.00;;;22.10;23.10;;;;;;5052151;28;20033;-73
2022/04/04 08:00:00;;;;;;;3.97;3.17;;;21.50;23.20;;;;;;5051814;28;20381;-73
2022/04/04 08:02:26;;;;;;;12.45;3.05;;;20.80;23.90;;;;;;5052276;28;20048;-72
2022/04/04 08:04:52;;;;;;;4.35;3.10;;;19.90;24.10;;;;;;5050486;28;20032;-73
2022/04/04 08:07:19;;;;;;;4.38;3.25;;;20.20;24.40;;;;;;5052329;28;20021;-73
2022/04/04 08:09:46;;;;;;;4.68;3.15;;;20.40;24.30;;;;;;5052052;28;20095;-74
2022/04/04 08:12:12;;;;;;;5.00;2.92;;;20.90;24.20;;;;;;5051555;28;20052;-73
2022/04/04 08:14:38;;;;;;;4.95;3.13;;;20.80;23.40;;;;;;5052280;28;20079;-73
2022/04/04 08:17:05;;;;;;;3.47;2.55;;;21.00;23.70;;;;;;5051398;28;20037;-73
2022/04/04 08:19:30;;;;;;;5.10;3.40;;;21.00;22.30;;;;;;5052324;28;20129;-74
2022/04/04 08:21:56;;;;;;;3.25;2.95;;;20.10;22.60;;;;;;5051439;28;20032;-74
2022/04/04 08:24:22;;;;;;;3.38;3.08;;;20.10;23.70;;;;;;5051975;28;20025;-73
2022/04/04 08:26:49;;;;;;;4.50;3.33;;;20.30;24.50;;;;;;5051640;28;20048;-74
2022/04/04 08:29:14;;;;;;;3.65;2.92;;;20.10;23.40;;;;;;5051556;28;20463;-73
2022/04/04 08:31:40;;;;;;;5.60;3.28;;;21.00;24.20;;;;;;5052224;28;20048;-73
2022/04/04 08:34:07;;;;;;;3.97;3.22;;;22.10;23.90;;;;;;5051372;28;20036;-73
2022/04/04 08:36:33;;;;;;;3.40;3.10;;;22.40;23.40;;;;;;5051642;28;20053;-73
2022/04/04 08:38:59;;;;;;;5.53;3.30;;;22.60;23.10;;;;;;5050989;28;20084;-73
2022/04/04 08:41:29;;;;;;;5.28;3.15;;;22.80;22.40;;;;;;5051360;28;20159;-73
2022/04/04 08:44:00;;;;;;;4.00;3.58;;;22.50;22.30;;;;;;5051274;28;20113;-74
2022/04/04 08:46:25;;;;;;;4.50;3.50;;;19.90;22.50;;;;;;5051972;28;20047;-72
2022/04/04 08:48:54;;;;;;;5.70;3.58;;;18.10;24.20;;;;;;5051473;28;20037;-73
2022/04/04 08:51:20;;;;;;;4.95;3.50;;;17.00;25.80;;;;;;5051908;28;20061;-73
2022/04/04 08:53:46;;;;;;;5.28;3.10;;;16.20;27.00;;;;;;5050350;28;20484;-73
2022/04/04 08:56:12;;;;;;;5.57;3.92;;;15.70;26.80;;;;;;5050554;28;20053;-73
2022/04/04 08:58:38;;;;;;;6.15;3.60;;;15.20;27.70;;;;;;5054063;28;20025;-73
2022/04/04 09:01:04;;;;;;;3.88;3.45;;;14.80;28.40;;;;;;5055146;28;20029;-72
2022/04/04 09:03:31;;;;;;;4.28;3.65;;;14.40;27.80;;;;;;5055583;28;20051;-73
2022/04/04 09:06:03;;;;;;;3.85;3.47;;;14.30;28.80;;;;;;5055017;28;20355;-73
2022/04/04 09:08:30;;;;;;;6.00;3.55;;;14.10;28.80;;;;;;5054200;28;20469;-73
2022/04/04 09:11:00;;;;;;;4.95;3.65;;;14.10;29.20;;;;;;5054679;28;20059;-75
2022/04/04 09:13:27;;;;;;;5.65;3.83;;;14.10;29.50;;;;;;5055457;28;20044;-72
2022/04/04 09:16:04;;;;;;;4.57;3.63;;;13.90;29.30;;;;;;5055089;28;20033;-73
2022/04/04 09:18:36;;;;;;;3.53;3.22;;;13.60;29.20;;;;;;5055205;28;20115;-73
2022/04/04 09:21:07;;;;;;;5.15;3.72;;;13.40;29.30;;;;;;5054319;28;20096;-73
2022/04/04 09:23:50;;;;;;;3.97;3.28;;;13.20;29.20;;;;;;5054721;28;20367;-73
2022/04/04 09:26:28;;;;;;;6.68;4.07;;;12.80;29.60;;;;;;5054707;28;20269;-73
2022/04/04 09:28:55;;;;;;;4.63;3.67;;;12.40;30.00;;;;;;5055016;28;20057;-74
2022/04/04 09:31:21;;;;;;;4.65;3.55;;;12.20;30.40;;;;;;5054703;28;20377;-74
2022/04/04 09:33:46;;;;;;;4.15;3.63;;;12.10;30.90;;;;;;5054958;28;20029;-74
2022/04/04 09:36:12;;;;;;;4.13;3.63;;;11.80;31.20;;;;;;5054262;28;20032;-74
2022/04/04 09:38:42;;;;;;;3.42;3.13;;;11.80;32.00;;;;;;5054449;28;20149;-73
2022/04/04 09:41:13;;;;;;;4.43;3.45;;;11.80;31.90;;;;;;5053937;28;20028;-73
2022/04/04 09:44:12;;;;;;;5.32;3.50;;;11.80;32.30;;;;;;5053601;28;20375;-73
2022/04/04 09:46:40;;;;;;;5.65;3.90;;;11.80;32.40;;;;;;5042610;28;20090;-74
2022/04/04 09:49:13;;;;;;;5.30;4.30;;;11.90;32.60;;;;;;5054219;28;20044;-73
2022/04/04 09:51:40;;;;;;;5.28;3.72;;;11.80;31.90;;;;;;5054799;28;20525;-72
2022/04/04 09:54:08;;;;;;;4.25;3.85;;;11.80;32.20;;;;;;5053936;28;20029;-73
2022/04/04 09:56:34;;;;;;;3.90;3.50;;;11.60;32.10;;;;;;5052917;28;20053;-74
2022/04/04 09:59:00;;;;;;;6.15;3.70;;;11.60;32.60;;;;;;5054030;28;20191;-73
2022/04/04 10:01:27;;;;;;;4.10;3.67;;;11.50;32.40;;;;;;5054212;28;20444;-73
2022/04/04 10:03:56;;;;;;;4.40;3.78;;;11.50;32.10;;;;;;5054265;28;20022;-73
2022/04/04 10:06:26;;;;;;;5.13;3.47;;;11.40;32.50;;;;;;5053144;28;20102;-74
2022/04/04 10:09:00;;;;;;;5.32;3.75;;;11.30;32.70;;;;;;5053925;28;20129;-73
2022/04/04 10:11:26;;;;;;;4.97;4.10;;;11.10;33.20;;;;;;5054382;28;20025;-74
2022/04/04 10:13:54;;;;;;;4.93;4.05;;;10.90;34.10;;;;;;5054163;28;20036;-73
2022/04/04 10:16:22;;;;;;;5.05;3.63;;;11.00;34.00;;;;;;5053469;28;20302;-74
2022/04/04 10:18:49;;;;;;;4.82;3.95;;;11.00;34.50;;;;;;5054138;28;20029;-73
2022/04/04 10:21:16;;;;;;;4.95;3.65;;;11.10;34.90;;;;;;5053021;28;20040;-73
2022/04/04 10:23:43;;;;;;;6.43;4.13;;;11.10;33.60;;;;;;5053494;28;20382;-73
2022/04/04 10:26:11;;;;;;;4.22;3.50;;;11.10;33.60;;;;;;5052678;28;20098;-73
2022/04/04 10:28:38;;;;;;;4.30;3.80;;;11.10;34.90;;;;;;5053900;28;20025;-73
2022/04/04 10:31:26;;;;;;;5.90;3.72;;;11.10;33.80;;;;;;5052956;28;20047;-73
2022/04/04 10:33:52;;;;;;;5.65;4.25;;;11.00;33.40;;;;;;5053739;28;20033;-72
2022/04/04 10:36:23;;;;;;;4.72;3.95;;;11.00;33.90;;;;;;5053113;28;20028;-73
2022/04/04 10:38:54;;;;;;;4.05;3.63;;;11.00;34.50;;;;;;5053875;28;20028;-74
2022/04/04 10:41:27;;;;;;;3.70;3.38;;;11.10;34.70;;;;;;5053164;28;20033;-73
2022/04/04 10:43:55;;;;;;;4.55;3.95;;;11.30;33.60;;;;;;5053895;28;20036;-73
2022/04/04 10:46:22;;;;;;;3.95;3.35;;;11.40;33.90;;;;;;5053096;28;20029;-73
2022/04/04 10:49:04;;;;;;;6.07;3.83;;;11.50;34.00;;;;;;5053579;28;20029;-73
2022/04/04 10:51:33;;;;;;;5.07;3.60;;;11.30;33.30;;;;;;5053891;28;20029;-73
2022/04/04 10:54:04;;;;;;;5.57;4.30;;;11.20;33.50;;;;;;5053589;28;20036;-72
2022/04/04 10:56:37;;;;;;;3.92;3.45;;;11.10;33.70;;;;;;5053580;28;20395;-72
2022/04/04 10:59:23;;;;;;;6.22;4.15;;;11.10;34.20;;;;;;5053247;28;20032;-78
2022/04/04 11:01:55;;;;;;;3.83;3.42;;;11.00;34.60;;;;;;5052241;28;20381;-73
2022/04/04 11:04:37;;;;;;;4.63;3.85;;;10.90;34.60;;;;;;5052738;28;20357;-74
2022/04/04 11:09:55;;;;;;;4.57;4.17;;;10.70;35.10;;;;;;5053223;28;20043;-73
2022/04/04 11:12:24;;;;;;;4.18;3.75;;;10.60;35.70;;;;;;5052537;28;20032;-72
2022/04/04 11:14:55;;;;;;;5.28;4.53;;;10.60;35.50;;;;;;5053099;28;20032;-72
2022/04/04 11:17:30;;;;;;;4.60;3.70;;;10.60;36.10;;;;;;5052591;28;20029;-73
2022/04/04 11:20:33;;;;;;;5.82;3.80;;;10.60;35.40;;;;;;5052715;28;20270;-73
2022/04/04 11:23:11;;;;;;;7.32;5.15;;;10.50;36.00;;;;;;5052770;28;20024;-73
2022/04/04 11:25:48;;;;;;;6.53;5.30;;;10.50;37.20;;;;;;5053228;28;20351;-74
2022/04/04 11:28:15;;;;;;;6.63;4.93;;;10.60;37.50;;;;;;5052295;28;20029;-73
2022/04/04 11:30:41;;;;;;;8.48;5.40;;;10.70;37.80;;;;;;5052934;28;20114;-74
2022/04/04 11:33:11;;;;;;;6.65;5.28;;;10.80;37.50;;;;;;5052236;28;20450;-74
2022/04/04 11:38:22;;;;;;;6.50;5.32;;;10.70;37.20;;;;;;5051808;28;20086;-73
2022/04/04 11:40:55;;;;;;;8.43;5.55;;;10.60;37.60;;;;;;5052614;28;20044;-73
2022/04/04 11:43:23;;;;;;;7.18;5.63;;;10.50;38.10;;;;;;5051983;28;20033;-74
2022/04/04 11:45:52;;;;;;;6.10;5.50;;;10.50;38.00;;;;;;5052957;28;20069;-74
2022/04/04 11:48:24;;;;;;;6.45;5.47;;;10.50;38.60;;;;;;5051836;28;20025;-74
2022/04/04 11:50:56;;;;;;;5.95;5.45;;;10.40;38.30;;;;;;5052279;28;20037;-73
2022/04/04 11:53:25;;;;;;;7.28;6.32;;;10.10;39.50;;;;;;5051848;28;20032;-74
2022/04/04 11:55:52;;;;;;;8.20;6.50;;;10.10;39.70;;;;;;5052165;28;20050;-74
2022/04/04 11:58:20;;;;;;;6.47;5.65;;;10.10;39.70;;;;;;5051775;28;20029;-74
2022/04/04 12:00:55;;;;;;;6.90;6.18;;;10.10;40.10;;;;;;5052328;28;20036;-73
2022/04/04 12:03:23;;;;;;;8.60;7.32;;;10.10;40.20;;;;;;5051391;28;20505;-74
2022/04/04 12:05:50;;;;;;;7.18;6.03;;;10.10;39.50;;;;;;5052489;28;20522;-73
2022/04/04 12:08:17;;;;;;;6.90;5.28;;;10.00;39.90;;;;;;5051318;28;20052;-73
2022/04/04 12:10:45;;;;;;;6.97;5.80;;;10.10;40.50;;;;;;5052219;28;20033;-73
2022/04/04 12:13:22;;;;;;;6.65;5.90;;;10.30;40.70;;;;;;5051494;28;20039;-74
2022/04/04 12:15:50;;;;;;;7.43;6.35;;;10.40;40.60;;;;;;5052140;28;20381;-73
2022/04/04 12:18:25;;;;;;;7.32;5.80;;;10.30;40.50;;;;;;5051242;28;20163;-74
2022/04/04 12:20:57;;;;;;;8.85;5.20;;;10.30;40.40;;;;;;5051766;28;20498;-73
2022/04/04 12:26:10;;;;;;;5.75;5.07;;;10.30;40.60;;;;;;5052088;28;20488;-73
2022/04/04 12:28:41;;;;;;;6.53;5.50;;;10.30;40.20;;;;;;5051895;28;20028;-73
2022/04/04 12:31:14;;;;;;;5.82;5.28;;;10.30;39.60;;;;;;5051971;28;20029;-73
2022/04/04 12:33:41;;;;;;;6.97;5.78;;;10.30;40.10;;;;;;5051606;28;20040;-73
2022/04/04 12:36:06;;;;;;;6.68;5.95;;;10.40;41.20;;;;;;5051739;28;20503;-74
2022/04/04 12:38:37;;;;;;;8.75;5.75;;;10.40;41.60;;;;;;5051275;28;20028;-72
2022/04/04 12:41:04;;;;;;;8.88;6.15;;;10.40;41.00;;;;;;5051912;28;20040;-74
2022/04/04 12:43:30;;;;;;;6.55;5.93;;;10.50;40.90;;;;;;5051146;28;20323;-73
2022/04/04 12:45:55;;;;;;;6.65;5.95;;;10.40;40.90;;;;;;5051584;28;20476;-74
2022/04/04 12:48:24;;;;;;;6.80;5.85;;;10.40;40.30;;;;;;5051178;28;20033;-74
2022/04/04 12:50:50;;;;;;;11.23;6.50;;;10.50;40.70;;;;;;5051700;28;20045;-74
2022/04/04 12:53:18;;;;;;;7.00;5.45;;;10.40;40.40;;;;;;5051095;28;20021;-74
2022/04/04 12:56:06;;;;;;;4.47;4.07;;;10.40;40.60;;;;;;5051653;28;20100;-73